Time;durP1;ratioP1;P1;durP2;ratioP2;P2;SDS_P1;SDS_P2;PMS_P1;PMS_P2;Temp;Humidity;BMP_temperature;BMP_pressure;BME280_temperature;BME280_humidity;BME280_pressure;Samples;Min_cycle;Max_cycle;Signal;HPM_P1;HPM_P2
2022/05/28 00:01:02;;;;;;;11.90;1.42;;;11.20;99.90;;;;;;5121332;27;20433;-85
2022/05/28 00:03:29;;;;;;;6.97;0.98;;;11.10;99.90;;;;;;5104910;27;20043;-91
2022/05/28 00:05:55;;;;;;;8.95;1.02;;;11.00;99.90;;;;;;5142527;27;20163;-75
2022/05/28 00:08:21;;;;;;;8.20;1.52;;;11.00;99.90;;;;;;5123286;27;20041;-86
2022/05/28 00:10:47;;;;;;;7.40;0.77;;;10.90;99.90;;;;;;5119352;27;20062;-75
2022/05/28 00:13:13;;;;;;;11.32;1.88;;;11.00;99.90;;;;;;5120371;27;20051;-78
2022/05/28 00:15:41;;;;;;;10.70;1.00;;;10.70;99.90;;;;;;5122209;27;20031;-75
2022/05/28 00:18:08;;;;;;;14.65;1.40;;;10.90;99.90;;;;;;5123328;27;20035;-76
2022/05/28 00:20:34;;;;;;;11.25;1.55;;;10.90;99.90;;;;;;5115369;27;20125;-88
2022/05/28 00:22:59;;;;;;;10.50;1.58;;;10.90;99.90;;;;;;5123531;27;20114;-78
2022/05/28 00:25:26;;;;;;;9.93;1.48;;;9.90;99.90;;;;;;5142496;27;20076;-75
2022/05/28 00:27:53;;;;;;;7.93;1.30;;;10.90;99.90;;;;;;5105040;27;20035;-84
2022/05/28 00:30:19;;;;;;;5.38;1.33;;;9.60;99.90;;;;;;5139307;27;20103;-75
2022/05/28 00:32:44;;;;;;;12.43;2.47;;;10.90;99.90;;;;;;5104914;27;20030;-92
2022/05/28 00:35:15;;;;;;;9.23;1.48;;;10.80;99.90;;;;;;5123390;27;20079;-80
2022/05/28 00:37:41;;;;;;;7.93;2.17;;;10.90;99.90;;;;;;5138985;27;20457;-88
2022/05/28 00:40:11;;;;;;;6.43;1.33;;;10.80;99.90;;;;;;5145074;27;20088;-74
2022/05/28 00:42:37;;;;;;;9.77;1.30;;;10.80;99.90;;;;;;5104143;27;20042;-74
2022/05/28 00:45:03;;;;;;;8.60;1.45;;;10.80;99.90;;;;;;5094115;28;20080;-79
2022/05/28 00:47:30;;;;;;;12.25;2.15;;;10.80;99.90;;;;;;5096649;28;20043;-79
2022/05/28 00:49:56;;;;;;;12.32;1.58;;;11.50;99.90;;;;;;5098778;28;20050;-83
2022/05/28 00:52:25;;;;;;;6.97;1.25;;;12.40;99.90;;;;;;5098599;28;20047;-76
2022/05/28 00:54:52;;;;;;;10.18;1.60;;;11.90;99.90;;;;;;5094953;28;20579;-76
2022/05/28 00:57:19;;;;;;;12.10;1.83;;;10.70;99.90;;;;;;5096636;28;20048;-75
2022/05/28 00:59:45;;;;;;;13.43;2.03;;;12.20;99.90;;;;;;5097848;28;20377;-76
2022/05/28 01:02:23;;;;;;;11.80;1.67;;;10.70;99.90;;;;;;5082027;28;20074;-82
2022/05/28 01:05:11;;;;;;;8.35;1.10;;;10.70;99.90;;;;;;5095133;28;20040;-76
2022/05/28 01:07:58;;;;;;;8.77;1.88;;;10.60;99.90;;;;;;5079450;28;20071;-92
2022/05/28 01:10:48;;;;;;;9.00;1.48;;;10.70;99.90;;;;;;5099614;28;20274;-76
2022/05/28 01:13:28;;;;;;;13.35;1.60;;;10.60;99.90;;;;;;5100306;28;20094;-75
2022/05/28 01:16:01;;;;;;;9.48;2.30;;;10.60;99.90;;;;;;5095237;28;20032;-80
2022/05/28 01:18:34;;;;;;;10.43;1.48;;;10.60;99.90;;;;;;5096848;28;20059;-82
2022/05/28 01:21:06;;;;;;;10.05;1.08;;;11.60;99.90;;;;;;5102821;28;20051;-91
2022/05/28 01:23:49;;;;;;;11.50;2.22;;;10.40;99.90;;;;;;5094982;28;20613;-92
2022/05/28 01:26:24;;;;;;;16.75;1.85;;;10.40;99.90;;;;;;5103038;28;20047;-85
2022/05/28 01:28:56;;;;;;;12.68;1.70;;;10.40;99.90;;;;;;5100287;28;20145;-88
2022/05/28 01:31:25;;;;;;;10.43;1.17;;;10.40;99.90;;;;;;5101446;28;20034;-89
2022/05/28 01:33:51;;;;;;;12.48;1.27;;;10.40;99.90;;;;;;5102540;28;20054;-88
2022/05/28 01:36:19;;;;;;;7.43;1.25;;;10.40;99.90;;;;;;5085999;28;20047;-85
2022/05/28 01:38:46;;;;;;;8.45;1.58;;;11.40;99.90;;;;;;5100658;28;20395;-89
2022/05/28 01:41:13;;;;;;;12.05;1.20;;;10.30;99.90;;;;;;5082676;28;20485;-88
2022/05/28 01:43:42;;;;;;;7.57;0.80;;;10.40;99.90;;;;;;5101834;28;20036;-89
2022/05/28 01:46:11;;;;;;;12.00;0.98;;;10.30;99.90;;;;;;5086404;28;20088;-92
2022/05/28 01:48:39;;;;;;;6.75;1.30;;;10.50;99.90;;;;;;5100931;28;20047;-80
2022/05/28 01:51:09;;;;;;;7.28;1.10;;;10.30;99.90;;;;;;5101477;28;20036;-81
2022/05/28 01:56:22;;;;;;;6.80;1.27;;;10.30;99.90;;;;;;5104693;28;20043;-85
2022/05/28 01:58:48;;;;;;;6.38;1.33;;;10.20;99.90;;;;;;5083955;28;20388;-92
2022/05/28 02:01:13;;;;;;;11.07;2.03;;;10.20;99.90;;;;;;5099659;28;20546;-90
2022/05/28 02:03:42;;;;;;;10.18;1.67;;;10.20;99.90;;;;;;5082674;28;20043;-82
2022/05/28 02:06:08;;;;;;;10.70;1.48;;;10.10;99.90;;;;;;5103421;28;20056;-88
2022/05/28 02:08:40;;;;;;;11.75;1.70;;;10.10;99.90;;;;;;5103096;28;20043;-90
2022/05/28 02:11:19;;;;;;;8.50;1.65;;;10.10;99.90;;;;;;5084520;28;20066;-87
2022/05/28 02:14:16;;;;;;;6.03;1.20;;;10.10;99.90;;;;;;5110284;28;20159;-84
2022/05/28 02:17:18;;;;;;;12.43;1.33;;;10.10;99.90;;;;;;5100713;28;20224;-89
2022/05/28 02:20:09;;;;;;;11.60;1.58;;;10.10;99.90;;;;;;5083456;28;20488;-81
2022/05/28 02:23:14;;;;;;;15.70;2.35;;;10.10;99.90;;;;;;5102180;28;20117;-88
2022/05/28 02:26:00;;;;;;;12.63;1.80;;;11.40;99.90;;;;;;5022460;28;20056;-84
2022/05/28 02:28:29;;;;;;;12.10;1.95;;;10.10;99.90;;;;;;5096676;28;20458;-91
2022/05/28 02:31:02;;;;;;;9.13;1.52;;;10.00;99.90;;;;;;5083139;28;20443;-88
2022/05/28 02:33:29;;;;;;;7.88;1.30;;;10.10;99.90;;;;;;5085411;28;20480;-88
2022/05/28 02:35:54;;;;;;;14.07;1.77;;;9.40;99.90;;;;;;5098822;28;20468;-86
2022/05/28 02:38:20;;;;;;;12.70;1.85;;;10.10;99.90;;;;;;5081296;28;20075;-83
2022/05/28 02:40:46;;;;;;;8.88;1.65;;;10.10;99.90;;;;;;5083604;28;20055;-90
2022/05/28 02:43:12;;;;;;;9.63;1.70;;;10.10;99.90;;;;;;5085954;28;20035;-88
2022/05/28 02:45:39;;;;;;;9.02;2.05;;;10.10;99.90;;;;;;5091757;27;20490;-86
2022/05/28 02:48:06;;;;;;;13.32;2.72;;;10.10;99.90;;;;;;5118999;27;20049;-89
2022/05/28 02:50:31;;;;;;;13.52;1.75;;;10.10;99.90;;;;;;5118861;27;20498;-84
2022/05/28 02:52:57;;;;;;;11.30;1.98;;;10.10;99.90;;;;;;5120863;27;20046;-85
2022/05/28 02:55:23;;;;;;;15.32;1.98;;;10.10;99.90;;;;;;5104775;27;20118;-83
2022/05/28 02:57:49;;;;;;;15.38;2.22;;;10.10;99.90;;;;;;5119698;27;20050;-87
2022/05/28 03:00:16;;;;;;;13.73;2.95;;;11.20;99.90;;;;;;5117975;27;20044;-85
2022/05/28 03:02:43;;;;;;;12.48;1.65;;;10.20;99.90;;;;;;5120432;27;20127;-84
2022/05/28 03:05:10;;;;;;;13.20;1.73;;;10.10;99.90;;;;;;5122187;27;20031;-89
2022/05/28 03:07:36;;;;;;;16.00;2.75;;;10.20;99.90;;;;;;5121256;27;20047;-91
2022/05/28 03:10:02;;;;;;;15.88;2.08;;;10.10;99.90;;;;;;5118539;27;20039;-91
2022/05/28 03:12:27;;;;;;;12.98;1.80;;;10.20;99.90;;;;;;5118813;27;20042;-87
2022/05/28 03:14:53;;;;;;;9.65;1.48;;;10.20;99.90;;;;;;5121485;27;20366;-80
2022/05/28 03:17:19;;;;;;;18.67;2.10;;;10.10;99.90;;;;;;5105408;27;20092;-87
2022/05/28 03:19:44;;;;;;;13.23;3.53;;;10.20;99.90;;;;;;5119553;27;20072;-79
2022/05/28 03:22:10;;;;;;;18.88;2.13;;;10.00;99.90;;;;;;5120092;27;20101;-86
2022/05/28 03:24:35;;;;;;;12.23;2.05;;;10.10;99.90;;;;;;5117751;27;20047;-86
2022/05/28 03:27:01;;;;;;;9.77;1.70;;;10.20;99.90;;;;;;5122069;27;20039;-87
2022/05/28 03:29:27;;;;;;;11.80;1.70;;;9.80;99.90;;;;;;5088252;27;20035;-88
2022/05/28 03:31:52;;;;;;;18.23;2.40;;;10.20;99.90;;;;;;5118765;27;20039;-87
2022/05/28 03:34:18;;;;;;;16.63;1.85;;;10.20;99.90;;;;;;5117553;27;20072;-90
2022/05/28 03:36:44;;;;;;;16.38;3.03;;;11.60;99.90;;;;;;5118944;27;20043;-76
2022/05/28 03:39:09;;;;;;;15.85;2.17;;;10.10;99.90;;;;;;5122933;27;20038;-79
2022/05/28 03:41:35;;;;;;;14.55;2.70;;;10.00;99.90;;;;;;5120913;27;20085;-76
2022/05/28 03:44:01;;;;;;;13.98;2.63;;;11.30;99.90;;;;;;5101198;28;20505;-88
2022/05/28 03:46:32;;;;;;;16.15;3.35;;;10.70;99.90;;;;;;5135636;27;20051;-83
2022/05/28 03:49:01;;;;;;;13.23;2.35;;;10.20;99.90;;;;;;5123862;27;20039;-76
2022/05/28 03:51:28;;;;;;;17.75;2.78;;;10.20;99.90;;;;;;5127002;27;20034;-80
2022/05/28 03:53:54;;;;;;;15.50;2.92;;;10.20;99.90;;;;;;5122630;27;20102;-88
2022/05/28 03:56:20;;;;;;;14.98;2.50;;;10.10;99.90;;;;;;5123213;27;20034;-85
2022/05/28 03:58:47;;;;;;;18.25;2.95;;;10.20;99.90;;;;;;5122409;27;20039;-78
2022/05/28 04:01:14;;;;;;;10.35;2.33;;;10.20;99.90;;;;;;5143819;27;20030;-75
2022/05/28 04:03:39;;;;;;;16.85;2.15;;;11.50;99.90;;;;;;5141480;27;20042;-84
2022/05/28 04:06:05;;;;;;;13.90;2.83;;;10.20;99.90;;;;;;5120922;27;20038;-75
2022/05/28 04:08:30;;;;;;;17.02;2.53;;;10.20;99.90;;;;;;5121238;27;20054;-74
2022/05/28 04:10:56;;;;;;;12.73;2.50;;;10.20;99.90;;;;;;5104802;27;20045;-86
2022/05/28 04:13:22;;;;;;;10.23;1.67;;;10.20;99.90;;;;;;5124178;27;20264;-74
2022/05/28 04:15:49;;;;;;;18.30;2.75;;;10.20;99.90;;;;;;5122625;27;20081;-77
2022/05/28 04:18:15;;;;;;;13.35;2.58;;;10.10;99.90;;;;;;5140317;27;20035;-74
2022/05/28 04:20:41;;;;;;;12.05;1.90;;;10.20;99.90;;;;;;5104169;27;20130;-74
2022/05/28 04:23:07;;;;;;;12.98;2.28;;;10.20;99.90;;;;;;5138651;27;20031;-75
2022/05/28 04:25:32;;;;;;;13.40;2.40;;;11.40;99.90;;;;;;5130489;27;20039;-83
2022/05/28 04:27:58;;;;;;;7.65;1.67;;;10.20;99.90;;;;;;5121716;27;20461;-78
2022/05/28 04:30:23;;;;;;;10.35;1.88;;;10.20;99.90;;;;;;5102709;27;20061;-76
2022/05/28 04:32:49;;;;;;;16.15;2.30;;;10.20;99.90;;;;;;5139325;27;20046;-80
2022/05/28 04:35:15;;;;;;;8.98;1.77;;;10.00;99.90;;;;;;5123920;27;20549;-79
2022/05/28 04:37:41;;;;;;;14.63;2.42;;;10.30;99.90;;;;;;5123151;27;20504;-87
2022/05/28 04:40:07;;;;;;;11.85;1.98;;;10.30;99.90;;;;;;5121345;27;20035;-79
2022/05/28 04:42:33;;;;;;;15.13;2.38;;;10.30;99.90;;;;;;5124633;27;20066;-80
2022/05/28 04:44:58;;;;;;;16.00;2.08;;;10.40;99.90;;;;;;5108530;27;20494;-86
2022/05/28 04:47:24;;;;;;;16.40;3.17;;;10.40;99.90;;;;;;5110371;27;20042;-76
2022/05/28 04:49:50;;;;;;;15.63;2.15;;;10.40;99.90;;;;;;5110002;27;20073;-81
2022/05/28 04:52:15;;;;;;;13.02;2.65;;;10.50;99.90;;;;;;5125504;27;20078;-86
2022/05/28 04:54:41;;;;;;;15.00;2.70;;;10.50;99.90;;;;;;5115348;27;20030;-80
2022/05/28 04:57:07;;;;;;;13.15;2.10;;;10.50;99.90;;;;;;5125811;27;20134;-76
2022/05/28 04:59:33;;;;;;;12.40;2.20;;;10.50;99.90;;;;;;5108539;27;20481;-78
2022/05/28 05:01:58;;;;;;;10.15;2.35;;;10.50;99.90;;;;;;5108889;27;20043;-76
2022/05/28 05:04:24;;;;;;;19.67;2.67;;;10.50;99.90;;;;;;5110357;27;20501;-77
2022/05/28 05:06:50;;;;;;;20.10;4.22;;;10.50;99.90;;;;;;5123179;27;20122;-75
2022/05/28 05:09:15;;;;;;;14.07;3.10;;;10.50;99.90;;;;;;5123356;28;20050;-75
2022/05/28 05:11:41;;;;;;;17.73;3.15;;;10.50;99.90;;;;;;5106378;28;20047;-76
2022/05/28 05:14:07;;;;;;;18.38;3.10;;;10.40;99.90;;;;;;5125190;27;20035;-75
2022/05/28 05:16:33;;;;;;;13.20;2.40;;;10.50;99.90;;;;;;5126636;27;20030;-75
2022/05/28 05:18:58;;;;;;;18.55;3.30;;;10.50;99.90;;;;;;5110819;27;20118;-84
2022/05/28 05:21:24;;;;;;;13.85;2.13;;;10.50;99.90;;;;;;5127669;28;20535;-80
2022/05/28 05:23:50;;;;;;;13.75;2.38;;;10.50;99.90;;;;;;5128117;27;20039;-79
2022/05/28 05:26:18;;;;;;;16.35;3.15;;;10.90;99.90;;;;;;5135473;27;20031;-79
2022/05/28 05:28:44;;;;;;;17.85;2.80;;;10.50;99.90;;;;;;5135702;27;20049;-87
2022/05/28 05:31:09;;;;;;;15.18;2.05;;;10.30;99.90;;;;;;5149836;27;20506;-81
2022/05/28 05:33:35;;;;;;;15.70;3.35;;;10.60;99.90;;;;;;5112693;27;20046;-77
2022/05/28 05:36:01;;;;;;;21.00;3.28;;;10.60;99.90;;;;;;5137380;27;20058;-83
2022/05/28 05:38:27;;;;;;;9.73;1.90;;;10.30;99.90;;;;;;5113567;28;20069;-85
2022/05/28 05:40:53;;;;;;;12.15;2.28;;;10.60;99.90;;;;;;5110895;27;20054;-82
2022/05/28 05:43:19;;;;;;;10.35;1.67;;;10.60;99.90;;;;;;5113030;27;20035;-82
2022/05/28 05:45:52;;;;;;;12.88;2.63;;;10.70;99.90;;;;;;5110529;27;20080;-82
2022/05/28 05:48:18;;;;;;;8.98;2.05;;;10.70;99.90;;;;;;5111549;28;20035;-75
2022/05/28 05:50:44;;;;;;;14.82;2.03;;;10.70;99.90;;;;;;5127074;28;20036;-81
2022/05/28 05:53:09;;;;;;;8.32;1.63;;;10.60;99.90;;;;;;5148207;27;20176;-87
2022/05/28 05:55:35;;;;;;;8.30;1.30;;;10.60;99.90;;;;;;5113314;28;20047;-79
2022/05/28 05:58:00;;;;;;;10.88;2.17;;;10.40;99.90;;;;;;5105878;27;20050;-79
2022/05/28 06:00:26;;;;;;;13.75;1.80;;;10.20;99.90;;;;;;5106456;27;20034;-89
2022/05/28 06:02:52;;;;;;;6.10;1.80;;;10.70;99.90;;;;;;5141122;27;20043;-83
2022/05/28 06:05:17;;;;;;;8.82;1.98;;;10.70;99.90;;;;;;5122957;27;20068;-87
2022/05/28 06:07:43;;;;;;;10.57;2.05;;;11.50;99.90;;;;;;5109843;27;20035;-88
2022/05/28 06:10:10;;;;;;;12.70;2.80;;;10.70;99.90;;;;;;5107657;27;20039;-89
2022/05/28 06:12:36;;;;;;;8.38;1.83;;;10.90;99.90;;;;;;5123189;27;20055;-87
2022/05/28 06:15:03;;;;;;;10.90;1.92;;;11.30;99.90;;;;;;5142343;27;20043;-90
2022/05/28 06:17:29;;;;;;;8.55;1.67;;;11.00;99.90;;;;;;5146496;27;20042;-88
2022/05/28 06:19:54;;;;;;;15.93;2.55;;;11.10;99.90;;;;;;5126773;27;20379;-88
2022/05/28 06:22:20;;;;;;;16.30;2.00;;;11.80;99.90;;;;;;5132231;27;20314;-85
2022/05/28 06:24:45;;;;;;;9.95;2.00;;;11.10;99.90;;;;;;5104157;27;20472;-85
2022/05/28 06:27:11;;;;;;;14.93;2.47;;;12.50;99.90;;;;;;5124675;27;20049;-78
2022/05/28 06:29:36;;;;;;;11.95;2.10;;;11.20;99.90;;;;;;5108862;27;20138;-80
2022/05/28 06:32:02;;;;;;;10.85;1.90;;;11.00;99.90;;;;;;5107465;27;20038;-80
2022/05/28 06:34:28;;;;;;;12.70;1.60;;;11.20;99.90;;;;;;5105229;27;20037;-78
2022/05/28 06:36:53;;;;;;;13.40;1.92;;;11.10;99.90;;;;;;5120846;27;20050;-76
2022/05/28 06:39:19;;;;;;;8.35;0.98;;;11.00;99.90;;;;;;5108262;27;20031;-84
2022/05/28 06:41:45;;;;;;;8.00;1.58;;;10.50;99.90;;;;;;5125010;27;20046;-76
2022/05/28 06:44:10;;;;;;;6.65;1.15;;;10.80;99.90;;;;;;5123206;27;20063;-77
2022/05/28 06:46:36;;;;;;;11.23;2.08;;;12.00;99.90;;;;;;5104460;27;20093;-79
2022/05/28 06:49:01;;;;;;;8.90;1.15;;;10.50;99.90;;;;;;5140476;27;20099;-84
2022/05/28 06:51:27;;;;;;;11.45;2.47;;;10.40;99.90;;;;;;5124658;27;20401;-75
2022/05/28 06:53:53;;;;;;;8.35;1.48;;;10.90;99.90;;;;;;5124609;27;20199;-81
2022/05/28 06:56:19;;;;;;;11.82;2.17;;;10.90;99.90;;;;;;5141181;27;20507;-80
2022/05/28 06:58:46;;;;;;;8.73;1.05;;;10.90;99.90;;;;;;5120763;27;20039;-79
2022/05/28 07:01:13;;;;;;;10.07;1.30;;;10.60;99.90;;;;;;5142108;27;20485;-76
2022/05/28 07:03:40;;;;;;;4.93;1.63;;;10.70;99.90;;;;;;5124797;27;20042;-75
2022/05/28 07:06:06;;;;;;;10.88;2.42;;;10.60;99.90;;;;;;5142864;27;20486;-76
2022/05/28 07:08:32;;;;;;;8.90;1.27;;;12.30;99.90;;;;;;5121688;27;20039;-81
2022/05/28 07:11:01;;;;;;;8.38;1.27;;;11.70;99.90;;;;;;5104117;27;20047;-76
2022/05/28 07:13:28;;;;;;;7.90;0.95;;;10.20;99.90;;;;;;5142785;27;20446;-77
2022/05/28 07:15:54;;;;;;;10.90;1.83;;;10.60;99.90;;;;;;5124928;27;20254;-75
2022/05/28 07:18:21;;;;;;;10.30;1.42;;;10.50;99.90;;;;;;5105189;27;20497;-84
2022/05/28 07:20:47;;;;;;;13.63;2.55;;;10.50;99.90;;;;;;5120327;27;20042;-78
2022/05/28 07:23:16;;;;;;;10.50;2.10;;;10.60;99.90;;;;;;5122605;27;20043;-77
2022/05/28 07:25:42;;;;;;;16.55;5.20;;;10.60;99.90;;;;;;5124431;27;20126;-79
2022/05/28 07:31:02;;;;;;;9.50;2.20;;;10.40;99.90;;;;;;5120855;27;20075;-83
2022/05/28 07:33:30;;;;;;;12.25;1.98;;;10.80;99.90;;;;;;5107367;27;20390;-80
2022/05/28 07:35:58;;;;;;;22.02;3.35;;;12.20;99.90;;;;;;5107749;27;20035;-82
2022/05/28 07:38:25;;;;;;;15.13;2.72;;;10.80;99.90;;;;;;5140509;27;20035;-78
2022/05/28 07:40:51;;;;;;;20.10;3.08;;;12.00;99.90;;;;;;5119562;27;20486;-77
2022/05/28 07:43:18;;;;;;;29.00;7.97;;;10.80;99.90;;;;;;5140790;27;20088;-86
2022/05/28 07:45:45;;;;;;;14.63;2.97;;;10.90;99.90;;;;;;5123618;27;20061;-81
2022/05/28 07:48:15;;;;;;;14.00;2.90;;;11.60;99.90;;;;;;5122860;27;20058;-79
2022/05/28 07:50:42;;;;;;;22.92;3.25;;;11.10;99.90;;;;;;5138712;27;20562;-77
2022/05/28 07:53:08;;;;;;;22.90;3.55;;;11.30;99.90;;;;;;5139430;27;20043;-79
2022/05/28 07:55:34;;;;;;;17.40;2.30;;;11.30;99.90;;;;;;5106579;27;20081;-83
2022/05/28 07:58:05;;;;;;;13.75;2.90;;;11.40;99.90;;;;;;5123770;27;20043;-82
2022/05/28 08:00:30;;;;;;;21.20;2.72;;;11.40;99.90;;;;;;5103636;27;20280;-82
2022/05/28 08:02:56;;;;;;;15.50;3.45;;;11.50;99.90;;;;;;5118739;27;20046;-78
2022/05/28 08:05:22;;;;;;;17.20;2.58;;;12.40;99.90;;;;;;5088641;27;20074;-81
2022/05/28 08:07:47;;;;;;;16.52;3.28;;;12.30;99.90;;;;;;5141740;27;20043;-81
2022/05/28 08:10:13;;;;;;;23.02;3.67;;;11.80;99.90;;;;;;5105547;27;20498;-78
2022/05/28 08:12:38;;;;;;;19.95;3.53;;;11.80;99.90;;;;;;5102980;27;20074;-81
2022/05/28 08:15:05;;;;;;;21.45;4.18;;;11.80;99.90;;;;;;5119969;27;20531;-83
2022/05/28 08:17:32;;;;;;;16.98;4.13;;;11.70;99.90;;;;;;5122599;27;20057;-79
2022/05/28 08:19:58;;;;;;;21.40;3.08;;;11.60;99.90;;;;;;5123273;27;20133;-83
2022/05/28 08:25:08;;;;;;;14.70;3.17;;;11.20;99.90;;;;;;5138598;27;20055;-86
2022/05/28 08:27:36;;;;;;;22.20;4.50;;;11.60;99.90;;;;;;5123482;27;20031;-78
2022/05/28 08:30:03;;;;;;;12.85;3.20;;;11.70;99.90;;;;;;5140564;27;20038;-79
2022/05/28 08:32:29;;;;;;;21.10;2.65;;;12.60;99.90;;;;;;5139770;27;20043;-79
2022/05/28 08:34:54;;;;;;;18.52;2.83;;;11.70;99.90;;;;;;5119281;27;20047;-79
2022/05/28 08:37:20;;;;;;;18.75;3.38;;;11.80;99.90;;;;;;5138836;27;20082;-83
2022/05/28 08:39:45;;;;;;;19.95;3.65;;;11.80;99.90;;;;;;5141333;27;20043;-84
2022/05/28 08:42:13;;;;;;;18.65;3.47;;;12.80;99.90;;;;;;5123675;27;20046;-80
2022/05/28 08:44:40;;;;;;;11.20;2.75;;;13.50;99.90;;;;;;5096593;27;20039;-77
2022/05/28 08:47:18;;;;;;;11.80;1.98;;;12.10;99.90;;;;;;5106085;27;20058;-83
2022/05/28 08:49:46;;;;;;;17.02;2.80;;;12.10;99.90;;;;;;5106002;27;20043;-84
2022/05/28 08:52:25;;;;;;;16.23;2.85;;;12.10;99.90;;;;;;5122676;27;20047;-83
2022/05/28 08:54:58;;;;;;;11.75;2.15;;;12.30;99.90;;;;;;5119194;28;20593;-85
2022/05/28 08:57:53;;;;;;;17.00;2.42;;;12.40;99.90;;;;;;5103198;27;20046;-81
2022/05/28 09:00:54;;;;;;;18.33;3.70;;;12.40;99.90;;;;;;5105177;27;20050;-77
2022/05/28 09:03:30;;;;;;;16.88;3.25;;;12.40;99.90;;;;;;5138944;27;20471;-83
2022/05/28 09:05:59;;;;;;;18.48;3.08;;;12.40;99.90;;;;;;5122327;27;20042;-83
2022/05/28 09:08:43;;;;;;;18.42;4.57;;;12.40;99.90;;;;;;5122059;27;20073;-80
2022/05/28 09:11:28;;;;;;;14.30;3.47;;;12.50;99.90;;;;;;5119856;28;20437;-86
2022/05/28 09:13:54;;;;;;;14.93;2.50;;;12.50;99.90;;;;;;5115872;27;20042;-86
2022/05/28 09:16:27;;;;;;;14.60;2.30;;;12.50;99.90;;;;;;5105193;27;20117;-85
2022/05/28 09:18:55;;;;;;;12.30;2.25;;;12.50;99.90;;;;;;5101435;28;20034;-83
2022/05/28 09:21:21;;;;;;;9.23;1.88;;;12.50;99.90;;;;;;5120521;27;20039;-85
2022/05/28 09:23:54;;;;;;;20.00;3.25;;;12.40;99.90;;;;;;5141205;27;20061;-84
2022/05/28 09:26:36;;;;;;;11.63;1.60;;;13.70;99.90;;;;;;5105220;27;20386;-83
2022/05/28 09:29:18;;;;;;;15.70;3.08;;;12.80;99.90;;;;;;5137617;27;20059;-84
2022/05/28 09:32:11;;;;;;;15.75;2.45;;;12.30;99.90;;;;;;5122712;27;20050;-80
2022/05/28 09:35:01;;;;;;;16.13;2.45;;;12.30;99.90;;;;;;5119558;27;20050;-84
2022/05/28 09:37:52;;;;;;;22.85;3.15;;;12.50;99.90;;;;;;5102926;27;20043;-85
2022/05/28 09:40:26;;;;;;;13.52;2.50;;;12.20;99.90;;;;;;5142565;27;20087;-83
2022/05/28 09:43:03;;;;;;;12.45;2.88;;;14.00;99.90;;;;;;5140547;27;20516;-80
2022/05/28 09:45:43;;;;;;;20.77;2.70;;;12.40;99.90;;;;;;5115338;27;20051;-81
2022/05/28 09:48:24;;;;;;;13.82;2.42;;;12.40;99.90;;;;;;5110618;28;20173;-74
2022/05/28 09:50:50;;;;;;;25.10;3.83;;;12.30;99.90;;;;;;5103461;28;20440;-73
2022/05/28 09:56:23;;;;;;;13.57;3.53;;;12.40;99.90;;;;;;5109712;28;20119;-81
2022/05/28 09:58:50;;;;;;;20.08;7.35;;;12.40;99.90;;;;;;5081481;28;20040;-80
2022/05/28 10:01:23;;;;;;;22.70;3.72;;;12.30;99.90;;;;;;5081275;28;20036;-81
2022/05/28 10:06:48;;;;;;;12.95;1.77;;;12.20;99.90;;;;;;5100331;28;20112;-78
2022/05/28 10:09:21;;;;;;;15.05;3.28;;;12.20;99.90;;;;;;5101812;28;20051;-79
2022/05/28 10:12:06;;;;;;;13.40;2.72;;;12.20;99.90;;;;;;5098848;28;20125;-78
2022/05/28 10:14:33;;;;;;;10.00;2.03;;;12.20;99.90;;;;;;5101265;28;20036;-77
2022/05/28 10:17:04;;;;;;;15.40;2.97;;;12.40;99.90;;;;;;5102338;28;20100;-82
2022/05/28 10:19:43;;;;;;;13.85;3.50;;;12.50;99.90;;;;;;5101315;28;20536;-80
2022/05/28 10:22:29;;;;;;;14.10;2.63;;;12.60;99.90;;;;;;5098109;28;20078;-80
2022/05/28 10:24:59;;;;;;;18.33;2.65;;;12.80;99.90;;;;;;5098185;28;20063;-85
2022/05/28 10:27:31;;;;;;;11.70;2.45;;;13.00;99.90;;;;;;5099851;28;20105;-84
2022/05/28 10:29:59;;;;;;;10.18;1.60;;;13.10;99.90;;;;;;5080539;28;20040;-80
2022/05/28 10:32:51;;;;;;;11.50;2.40;;;13.20;99.90;;;;;;5098480;28;20132;-80
2022/05/28 10:35:22;;;;;;;7.88;1.45;;;13.20;99.90;;;;;;5098370;28;20032;-81
2022/05/28 10:37:48;;;;;;;14.95;2.10;;;13.30;99.90;;;;;;5101166;28;20044;-80
2022/05/28 10:40:26;;;;;;;11.15;2.10;;;13.40;99.90;;;;;;5084863;28;20052;-80
2022/05/28 10:42:58;;;;;;;9.98;1.92;;;13.50;99.90;;;;;;5096897;28;20054;-80
2022/05/28 10:45:30;;;;;;;12.35;1.90;;;13.50;99.90;;;;;;5098360;28;20448;-82
2022/05/28 10:48:14;;;;;;;12.18;1.83;;;13.50;99.90;;;;;;5097612;28;20040;-82
2022/05/28 10:50:48;;;;;;;8.60;1.40;;;13.50;99.90;;;;;;5098031;28;20048;-82
2022/05/28 10:53:25;;;;;;;11.10;2.20;;;13.50;99.90;;;;;;5100871;28;20047;-82
2022/05/28 10:56:10;;;;;;;8.82;1.63;;;13.50;99.90;;;;;;5098506;28;20098;-82
2022/05/28 10:58:59;;;;;;;15.55;1.83;;;14.40;99.90;;;;;;5097815;28;20047;-82
2022/05/28 11:01:30;;;;;;;14.32;3.45;;;13.70;99.90;;;;;;5084413;28;20548;-82
2022/05/28 11:04:02;;;;;;;20.17;7.57;;;13.90;99.90;;;;;;5075385;28;20039;-81
2022/05/28 11:06:53;;;;;;;12.70;2.00;;;13.90;99.90;;;;;;5101656;28;20044;-83
2022/05/28 11:09:38;;;;;;;13.50;2.25;;;13.80;99.90;;;;;;5098218;28;20040;-82
2022/05/28 11:12:34;;;;;;;16.58;2.78;;;13.70;99.90;;;;;;5096945;28;20044;-81
2022/05/28 11:15:19;;;;;;;8.25;1.90;;;13.60;99.90;;;;;;5080599;28;20124;-78
2022/05/28 11:17:47;;;;;;;17.02;2.40;;;13.50;99.90;;;;;;5107251;28;20406;-83
2022/05/28 11:20:42;;;;;;;13.35;2.08;;;13.50;99.90;;;;;;5098228;28;20075;-80
2022/05/28 11:23:22;;;;;;;13.80;2.25;;;13.60;99.90;;;;;;5098956;28;20044;-81
2022/05/28 11:25:57;;;;;;;18.50;2.40;;;13.90;99.90;;;;;;5081291;28;20531;-82
2022/05/28 11:28:39;;;;;;;9.13;2.00;;;14.00;99.90;;;;;;5100814;28;20032;-79
2022/05/28 11:31:29;;;;;;;19.35;4.25;;;14.10;99.90;;;;;;5097295;28;20101;-80
2022/05/28 11:34:01;;;;;;;13.75;3.30;;;14.00;99.90;;;;;;5098691;28;20268;-81
2022/05/28 11:36:41;;;;;;;18.58;3.20;;;14.10;99.90;;;;;;5101144;28;20036;-83
2022/05/28 11:39:24;;;;;;;11.75;2.47;;;13.80;99.90;;;;;;5080068;28;20063;-81
2022/05/28 11:42:02;;;;;;;10.23;1.88;;;13.60;99.90;;;;;;5081666;28;20036;-84
2022/05/28 11:44:30;;;;;;;12.25;2.03;;;13.30;99.90;;;;;;5083642;28;20043;-81
2022/05/28 11:47:11;;;;;;;15.63;2.38;;;13.10;99.90;;;;;;5096393;28;20362;-84
2022/05/28 11:52:45;;;;;;;13.30;2.63;;;13.00;99.90;;;;;;5097313;28;20483;-84
2022/05/28 11:55:23;;;;;;;8.57;1.70;;;13.00;99.90;;;;;;5101106;28;20038;-84
2022/05/28 11:58:06;;;;;;;11.93;1.80;;;13.10;99.90;;;;;;5108115;28;20517;-84
2022/05/28 12:00:36;;;;;;;13.80;2.15;;;13.20;99.90;;;;;;5104612;28;20051;-80
2022/05/28 12:03:15;;;;;;;12.50;2.13;;;13.30;99.90;;;;;;5098615;28;20038;-82
2022/05/28 12:05:47;;;;;;;11.70;1.92;;;13.50;99.90;;;;;;5099367;28;20047;-82
2022/05/28 12:08:42;;;;;;;13.80;1.50;;;13.60;99.90;;;;;;5100853;28;20042;-82
2022/05/28 12:11:20;;;;;;;8.00;1.13;;;13.80;99.90;;;;;;5096359;28;20115;-83
2022/05/28 12:13:56;;;;;;;16.10;2.05;;;14.00;99.90;;;;;;5098716;28;20055;-82
2022/05/28 12:16:21;;;;;;;13.55;3.75;;;13.90;99.90;;;;;;5083290;28;20076;-81
2022/05/28 12:19:07;;;;;;;9.48;2.38;;;13.90;99.90;;;;;;5081601;28;20051;-82
2022/05/28 12:21:36;;;;;;;16.83;2.50;;;13.90;99.90;;;;;;5102789;28;20046;-82
2022/05/28 12:24:05;;;;;;;13.63;3.50;;;13.70;99.90;;;;;;5096317;28;20043;-81
2022/05/28 12:26:55;;;;;;;14.38;2.85;;;13.60;99.90;;;;;;5079407;28;20051;-81
2022/05/28 12:29:39;;;;;;;15.25;2.58;;;13.60;99.90;;;;;;5095680;28;20040;-83
2022/05/28 12:32:16;;;;;;;10.73;2.37;;;13.50;99.90;;;;;;5099670;28;20383;-82
2022/05/28 12:34:53;;;;;;;13.27;2.47;;;13.50;99.90;;;;;;5099971;28;20318;-83
2022/05/28 12:37:24;;;;;;;15.55;2.78;;;13.80;99.90;;;;;;5083644;28;20053;-81
2022/05/28 12:40:13;;;;;;;11.40;2.47;;;13.90;99.90;;;;;;5096642;28;20040;-82
2022/05/28 12:42:40;;;;;;;15.15;2.10;;;14.00;99.90;;;;;;5098183;28;20495;-81
2022/05/28 12:45:42;;;;;;;11.40;3.33;;;14.20;99.90;;;;;;5084310;27;20036;-85
2022/05/28 12:48:20;;;;;;;8.88;2.58;;;14.30;99.90;;;;;;5096965;27;20099;-81
2022/05/28 12:51:05;;;;;;;11.48;1.92;;;14.60;99.90;;;;;;5118946;27;20045;-81
2022/05/28 12:53:35;;;;;;;;;;;14.60;99.90;;;;;;5122030;27;20043;-81
2022/05/28 12:56:25;;;;;;;13.05;2.55;;;14.70;99.90;;;;;;5095447;27;19975;-82
2022/05/28 12:58:52;;;;;;;7.53;1.52;;;14.70;99.90;;;;;;5119341;27;20083;-82
2022/05/28 13:01:28;;;;;;;10.52;1.40;;;14.70;99.90;;;;;;5122701;27;20553;-81
2022/05/28 13:03:54;;;;;;;12.32;1.35;;;14.70;99.90;;;;;;5111946;27;20035;-82
2022/05/28 13:06:30;;;;;;;8.75;1.88;;;14.90;99.90;;;;;;5123119;27;20094;-82
2022/05/28 13:09:07;;;;;;;6.75;1.40;;;15.10;99.90;;;;;;5105134;27;20110;-82
2022/05/28 13:11:47;;;;;;;8.85;1.60;;;15.30;99.90;;;;;;5122668;27;20030;-82
2022/05/28 13:14:45;;;;;;;7.95;1.60;;;15.50;99.90;;;;;;5139471;27;20249;-81
2022/05/28 13:17:36;;;;;;;8.93;1.95;;;15.70;99.90;;;;;;5124200;27;20506;-82